sensor_id;sensor_type;location;lat;lon;timestamp;pressure;altitude;pressure_sealevel;temperature;humidity
33191;BME280;19554;42.652;23.364;2023-10-08T00:01:29;95052.38;;;14.99;41.36
33191;BME280;19554;42.652;23.364;2023-10-08T00:03:58;95061.63;;;15.07;40.95
33191;BME280;19554;42.652;23.364;2023-10-08T00:06:25;95064.19;;;15.12;40.83
33191;BME280;19554;42.652;23.364;2023-10-08T00:08:53;95057.44;;;15.01;41.54
33191;BME280;19554;42.652;23.364;2023-10-08T00:11:25;95051.31;;;14.86;41.45
33191;BME280;19554;42.652;23.364;2023-10-08T00:13:50;95056.09;;;14.89;41.23
33191;BME280;19554;42.652;23.364;2023-10-08T00:16:21;95050.13;;;14.92;41.42
33191;BME280;19554;42.652;23.364;2023-10-08T00:18:47;95053.78;;;14.97;41.44
33191;BME280;19554;42.652;23.364;2023-10-08T00:21:17;95043.72;;;15.02;41.06
33191;BME280;19554;42.652;23.364;2023-10-08T00:23:44;95044.50;;;15.03;41.17
33191;BME280;19554;42.652;23.364;2023-10-08T00:26:26;95040.84;;;14.99;41.34
33191;BME280;19554;42.652;23.364;2023-10-08T00:29:04;95042.06;;;14.92;41.38
33191;BME280;19554;42.652;23.364;2023-10-08T00:31:40;95044.19;;;14.82;41.44
33191;BME280;19554;42.652;23.364;2023-10-08T00:34:07;95048.31;;;14.65;41.69
33191;BME280;19554;42.652;23.364;2023-10-08T00:36:46;95045.41;;;14.62;41.79
33191;BME280;19554;42.652;23.364;2023-10-08T00:39:14;95017.59;;;14.30;41.98
33191;BME280;19554;42.652;23.364;2023-10-08T00:41:44;95046.44;;;14.11;42.91
33191;BME280;19554;42.652;23.364;2023-10-08T00:44:11;95032.94;;;14.02;43.06
33191;BME280;19554;42.652;23.364;2023-10-08T00:47:03;95032.72;;;14.26;42.94
33191;BME280;19554;42.652;23.364;2023-10-08T00:49:30;95034.19;;;14.32;42.85
33191;BME280;19554;42.652;23.364;2023-10-08T00:52:09;95028.72;;;14.37;42.44
33191;BME280;19554;42.652;23.364;2023-10-08T00:54:36;95028.91;;;14.41;42.67
33191;BME280;19554;42.652;23.364;2023-10-08T00:57:26;95025.81;;;14.48;42.67
33191;BME280;19554;42.652;23.364;2023-10-08T00:59:52;95020.47;;;14.48;42.57
33191;BME280;19554;42.652;23.364;2023-10-08T01:02:24;95017.25;;;14.45;42.44
33191;BME280;19554;42.652;23.364;2023-10-08T01:04:52;95028.22;;;14.35;42.22
33191;BME280;19554;42.652;23.364;2023-10-08T01:07:19;95020.78;;;14.18;42.58
33191;BME280;19554;42.652;23.364;2023-10-08T01:09:46;95029.94;;;14.04;42.94
33191;BME280;19554;42.652;23.364;2023-10-08T01:12:31;95013.25;;;13.79;43.26
33191;BME280;19554;42.652;23.364;2023-10-08T01:15:00;95017.63;;;13.89;43.20
33191;BME280;19554;42.652;23.364;2023-10-08T01:17:49;95028.16;;;13.99;43.29
33191;BME280;19554;42.652;23.364;2023-10-08T01:20:29;95009.84;;;13.87;43.46
33191;BME280;19554;42.652;23.364;2023-10-08T01:23:15;95021.38;;;14.02;43.42
33191;BME280;19554;42.652;23.364;2023-10-08T01:25:46;95023.47;;;14.05;43.84
33191;BME280;19554;42.652;23.364;2023-10-08T01:28:24;95020.19;;;13.94;44.24
33191;BME280;19554;42.652;23.364;2023-10-08T01:30:50;95001.53;;;13.75;43.99
33191;BME280;19554;42.652;23.364;2023-10-08T01:33:18;94997.63;;;13.67;44.41
33191;BME280;19554;42.652;23.364;2023-10-08T01:35:46;95018.03;;;13.82;44.09
33191;BME280;19554;42.652;23.364;2023-10-08T01:38:14;95023.88;;;13.84;44.15
33191;BME280;19554;42.652;23.364;2023-10-08T01:40:41;95031.31;;;13.87;44.39
33191;BME280;19554;42.652;23.364;2023-10-08T01:43:06;95027.06;;;13.86;44.12
33191;BME280;19554;42.652;23.364;2023-10-08T01:45:36;95015.63;;;13.94;44.01
33191;BME280;19554;42.652;23.364;2023-10-08T01:48:05;95004.09;;;13.94;43.41
33191;BME280;19554;42.652;23.364;2023-10-08T01:50:31;95001.41;;;13.94;43.39
33191;BME280;19554;42.652;23.364;2023-10-08T01:52:59;95008.66;;;13.93;43.55
33191;BME280;19554;42.652;23.364;2023-10-08T01:55:25;95014.94;;;13.89;43.77
33191;BME280;19554;42.652;23.364;2023-10-08T01:57:52;95019.72;;;13.78;44.62
33191;BME280;19554;42.652;23.364;2023-10-08T02:00:18;95028.84;;;13.77;44.18
33191;BME280;19554;42.652;23.364;2023-10-08T02:02:52;95034.91;;;13.69;44.58
33191;BME280;19554;42.652;23.364;2023-10-08T02:05:23;95030.72;;;13.63;44.36
33191;BME280;19554;42.652;23.364;2023-10-08T02:07:48;95016.38;;;13.54;44.46
33191;BME280;19554;42.652;23.364;2023-10-08T02:10:14;95034.50;;;13.62;44.59
33191;BME280;19554;42.652;23.364;2023-10-08T02:12:40;95001.50;;;13.47;44.33
33191;BME280;19554;42.652;23.364;2023-10-08T02:15:07;95005.44;;;13.50;44.32
33191;BME280;19554;42.652;23.364;2023-10-08T02:17:33;95021.16;;;13.57;43.97
33191;BME280;19554;42.652;23.364;2023-10-08T02:19:58;95011.94;;;13.63;44.23
33191;BME280;19554;42.652;23.364;2023-10-08T02:22:24;95015.72;;;13.62;43.85
33191;BME280;19554;42.652;23.364;2023-10-08T02:24:49;95014.63;;;13.63;44.24
33191;BME280;19554;42.652;23.364;2023-10-08T02:27:16;95019.31;;;13.71;44.35
33191;BME280;19554;42.652;23.364;2023-10-08T02:29:41;95008.34;;;13.67;44.64
33191;BME280;19554;42.652;23.364;2023-10-08T02:32:07;95003.88;;;13.63;44.57
33191;BME280;19554;42.652;23.364;2023-10-08T02:34:33;94958.72;;;13.23;44.87
33191;BME280;19554;42.652;23.364;2023-10-08T02:37:00;95010.44;;;13.57;44.96
33191;BME280;19554;42.652;23.364;2023-10-08T02:39:28;94944.41;;;13.14;44.73
33191;BME280;19554;42.652;23.364;2023-10-08T02:41:56;95008.84;;;13.56;44.79
33191;BME280;19554;42.652;23.364;2023-10-08T02:44:24;95003.09;;;13.48;45.14
33191;BME280;19554;42.652;23.364;2023-10-08T02:46:50;95007.25;;;13.55;45.15
33191;BME280;19554;42.652;23.364;2023-10-08T02:49:20;95001.78;;;13.60;44.99
33191;BME280;19554;42.652;23.364;2023-10-08T02:51:51;95005.56;;;13.59;44.64
33191;BME280;19554;42.652;23.364;2023-10-08T02:54:17;95007.66;;;13.62;44.60
33191;BME280;19554;42.652;23.364;2023-10-08T02:56:48;95013.31;;;13.60;44.75
33191;BME280;19554;42.652;23.364;2023-10-08T02:59:19;94995.91;;;13.30;45.03
33191;BME280;19554;42.652;23.364;2023-10-08T03:01:49;95009.53;;;13.47;45.08
33191;BME280;19554;42.652;23.364;2023-10-08T03:04:21;95015.78;;;13.43;45.22
33191;BME280;19554;42.652;23.364;2023-10-08T03:06:51;95013.59;;;13.45;45.53
33191;BME280;19554;42.652;23.364;2023-10-08T03:09:21;94989.06;;;13.19;45.80
33191;BME280;19554;42.652;23.364;2023-10-08T03:11:50;94994.41;;;13.24;45.82
33191;BME280;19554;42.652;23.364;2023-10-08T03:14:17;95011.69;;;13.32;46.03
33191;BME280;19554;42.652;23.364;2023-10-08T03:16:49;95006.84;;;13.34;45.82
33191;BME280;19554;42.652;23.364;2023-10-08T03:19:16;94981.94;;;13.14;45.95
33191;BME280;19554;42.652;23.364;2023-10-08T03:21:45;95000.25;;;13.26;46.18
33191;BME280;19554;42.652;23.364;2023-10-08T03:24:19;95006.63;;;13.30;46.02
33191;BME280;19554;42.652;23.364;2023-10-08T03:27:00;94987.66;;;13.08;46.32
33191;BME280;19554;42.652;23.364;2023-10-08T03:29:52;95006.44;;;13.08;46.49
33191;BME280;19554;42.652;23.364;2023-10-08T03:32:19;95008.91;;;13.04;46.72
33191;BME280;19554;42.652;23.364;2023-10-08T03:34:51;95006.06;;;12.95;47.04
33191;BME280;19554;42.652;23.364;2023-10-08T03:37:21;95001.81;;;12.94;47.35
33191;BME280;19554;42.652;23.364;2023-10-08T03:39:54;95005.06;;;12.91;47.57
33191;BME280;19554;42.652;23.364;2023-10-08T03:42:28;94981.63;;;12.83;47.57
33191;BME280;19554;42.652;23.364;2023-10-08T03:45:00;94979.59;;;12.75;47.34
33191;BME280;19554;42.652;23.364;2023-10-08T03:47:38;94968.41;;;12.73;47.23
33191;BME280;19554;42.652;23.364;2023-10-08T03:50:08;94967.16;;;12.84;47.02
33191;BME280;19554;42.652;23.364;2023-10-08T03:52:37;94984.63;;;12.95;46.93
33191;BME280;19554;42.652;23.364;2023-10-08T03:55:06;94989.72;;;12.97;46.52
33191;BME280;19554;42.652;23.364;2023-10-08T03:57:52;94966.16;;;12.80;46.85
33191;BME280;19554;42.652;23.364;2023-10-08T04:00:24;94979.97;;;12.87;47.30
33191;BME280;19554;42.652;23.364;2023-10-08T04:02:58;94983.16;;;12.89;46.96
33191;BME280;19554;42.652;23.364;2023-10-08T04:05:27;94975.75;;;12.81;47.33
33191;BME280;19554;42.652;23.364;2023-10-08T04:08:12;94950.81;;;12.67;47.18
33191;BME280;19554;42.652;23.364;2023-10-08T04:10:59;94943.88;;;12.66;47.64
33191;BME280;19554;42.652;23.364;2023-10-08T04:13:38;94969.91;;;12.79;47.25
33191;BME280;19554;42.652;23.364;2023-10-08T04:16:10;94979.53;;;12.80;47.51
33191;BME280;19554;42.652;23.364;2023-10-08T04:18:35;94972.91;;;12.59;47.51
33191;BME280;19554;42.652;23.364;2023-10-08T04:21:06;94976.31;;;12.45;48.04
33191;BME280;19554;42.652;23.364;2023-10-08T04:23:39;94979.91;;;12.17;49.17
33191;BME280;19554;42.652;23.364;2023-10-08T04:26:04;94979.91;;;12.17;49.14
33191;BME280;19554;42.652;23.364;2023-10-08T04:28:32;94976.16;;;12.18;48.91
33191;BME280;19554;42.652;23.364;2023-10-08T04:31:00;94967.47;;;12.26;48.74
33191;BME280;19554;42.652;23.364;2023-10-08T04:33:40;94970.53;;;12.38;48.22
33191;BME280;19554;42.652;23.364;2023-10-08T04:36:06;94974.69;;;12.44;48.25
33191;BME280;19554;42.652;23.364;2023-10-08T04:38:33;94986.88;;;12.55;48.03
33191;BME280;19554;42.652;23.364;2023-10-08T04:41:05;94985.13;;;12.65;47.69
33191;BME280;19554;42.652;23.364;2023-10-08T04:43:35;94970.22;;;12.59;47.54
33191;BME280;19554;42.652;23.364;2023-10-08T04:46:03;94910.59;;;12.34;46.92
33191;BME280;19554;42.652;23.364;2023-10-08T04:48:46;94987.38;;;12.76;47.34
33191;BME280;19554;42.652;23.364;2023-10-08T04:51:11;94987.72;;;12.70;47.36
33191;BME280;19554;42.652;23.364;2023-10-08T04:53:40;94950.34;;;12.46;47.45
33191;BME280;19554;42.652;23.364;2023-10-08T04:56:07;94984.16;;;12.93;47.15
33191;BME280;19554;42.652;23.364;2023-10-08T04:58:43;94969.59;;;12.99;46.95
33191;BME280;19554;42.652;23.364;2023-10-08T05:01:12;94968.91;;;13.26;46.49
33191;BME280;19554;42.652;23.364;2023-10-08T05:03:55;94987.41;;;13.56;45.82
33191;BME280;19554;42.652;23.364;2023-10-08T05:06:23;94981.25;;;13.69;45.31
33191;BME280;19554;42.652;23.364;2023-10-08T05:09:03;94960.78;;;13.59;45.07
33191;BME280;19554;42.652;23.364;2023-10-08T05:11:39;94952.03;;;13.67;44.80
33191;BME280;19554;42.652;23.364;2023-10-08T05:14:25;94911.78;;;13.54;44.66
33191;BME280;19554;42.652;23.364;2023-10-08T05:19:43;94986.75;;;14.41;43.64
33191;BME280;19554;42.652;23.364;2023-10-08T05:22:27;94932.50;;;14.17;43.49
33191;BME280;19554;42.652;23.364;2023-10-08T05:24:53;94994.34;;;14.76;43.22
33191;BME280;19554;42.652;23.364;2023-10-08T05:27:39;94997.94;;;14.93;42.96
33191;BME280;19554;42.652;23.364;2023-10-08T05:30:19;94984.25;;;15.26;42.10
33191;BME280;19554;42.652;23.364;2023-10-08T05:32:57;94924.41;;;15.12;41.65
33191;BME280;19554;42.652;23.364;2023-10-08T05:35:39;94994.69;;;15.81;41.41
33191;BME280;19554;42.652;23.364;2023-10-08T05:38:05;94986.66;;;15.99;40.81
33191;BME280;19554;42.652;23.364;2023-10-08T05:40:52;94993.88;;;16.29;40.42
33191;BME280;19554;42.652;23.364;2023-10-08T05:43:28;94992.66;;;16.53;40.10
33191;BME280;19554;42.652;23.364;2023-10-08T05:46:13;94993.63;;;16.74;40.17
33191;BME280;19554;42.652;23.364;2023-10-08T05:48:53;94997.63;;;16.77;40.18
33191;BME280;19554;42.652;23.364;2023-10-08T05:51:32;94992.66;;;16.70;40.40
33191;BME280;19554;42.652;23.364;2023-10-08T05:54:30;94996.50;;;17.04;40.27
33191;BME280;19554;42.652;23.364;2023-10-08T05:57:06;94990.66;;;16.76;40.70
33191;BME280;19554;42.652;23.364;2023-10-08T05:59:35;95011.22;;;17.15;40.71
33191;BME280;19554;42.652;23.364;2023-10-08T06:02:40;95004.75;;;16.90;41.23
33191;BME280;19554;42.652;23.364;2023-10-08T06:05:10;94978.69;;;16.68;41.72
33191;BME280;19554;42.652;23.364;2023-10-08T06:07:40;95007.41;;;16.73;41.82
33191;BME280;19554;42.652;23.364;2023-10-08T06:10:21;95008.50;;;16.63;41.00
33191;BME280;19554;42.652;23.364;2023-10-08T06:13:01;95005.03;;;16.71;41.55
33191;BME280;19554;42.652;23.364;2023-10-08T06:15:45;95002.66;;;16.70;40.36
33191;BME280;19554;42.652;23.364;2023-10-08T06:18:11;94903.72;;;16.27;40.18
33191;BME280;19554;42.652;23.364;2023-10-08T06:20:39;94982.34;;;17.24;39.39
33191;BME280;19554;42.652;23.364;2023-10-08T06:23:11;95001.53;;;17.32;39.31
33191;BME280;19554;42.652;23.364;2023-10-08T06:25:39;94990.94;;;17.26;39.26
33191;BME280;19554;42.652;23.364;2023-10-08T06:28:20;94988.22;;;17.26;39.46
33191;BME280;19554;42.652;23.364;2023-10-08T06:30:50;94993.75;;;17.39;38.69
33191;BME280;19554;42.652;23.364;2023-10-08T06:33:19;94990.34;;;17.68;38.10
33191;BME280;19554;42.652;23.364;2023-10-08T06:35:46;95000.16;;;17.72;37.92
33191;BME280;19554;42.652;23.364;2023-10-08T06:38:30;95007.78;;;17.70;38.17
33191;BME280;19554;42.652;23.364;2023-10-08T06:40:57;94998.91;;;17.79;38.02
33191;BME280;19554;42.652;23.364;2023-10-08T06:43:26;94990.34;;;17.76;37.79
33191;BME280;19554;42.652;23.364;2023-10-08T06:45:52;94991.31;;;18.02;37.56
33191;BME280;19554;42.652;23.364;2023-10-08T06:48:21;94975.88;;;18.11;37.31
33191;BME280;19554;42.652;23.364;2023-10-08T06:50:52;94992.75;;;18.37;37.18
33191;BME280;19554;42.652;23.364;2023-10-08T06:53:33;94982.94;;;18.54;36.78
33191;BME280;19554;42.652;23.364;2023-10-08T06:55:59;94980.94;;;18.72;36.59
33191;BME280;19554;42.652;23.364;2023-10-08T06:58:30;94960.56;;;19.07;36.32
33191;BME280;19554;42.652;23.364;2023-10-08T07:00:58;94977.03;;;19.35;35.75
33191;BME280;19554;42.652;23.364;2023-10-08T07:03:29;94984.53;;;19.51;34.83
33191;BME280;19554;42.652;23.364;2023-10-08T07:05:57;94980.31;;;19.41;35.08
33191;BME280;19554;42.652;23.364;2023-10-08T07:08:32;94976.31;;;19.59;34.84
33191;BME280;19554;42.652;23.364;2023-10-08T07:11:00;94953.38;;;19.45;35.08
33191;BME280;19554;42.652;23.364;2023-10-08T07:13:27;94972.75;;;19.68;34.39
33191;BME280;19554;42.652;23.364;2023-10-08T07:15:55;94982.22;;;19.74;34.68
33191;BME280;19554;42.652;23.364;2023-10-08T07:18:21;94967.06;;;19.60;34.69
33191;BME280;19554;42.652;23.364;2023-10-08T07:20:59;94972.06;;;19.71;34.73
33191;BME280;19554;42.652;23.364;2023-10-08T07:23:37;94953.06;;;19.58;34.83
33191;BME280;19554;42.652;23.364;2023-10-08T07:26:30;94959.88;;;19.64;34.86
33191;BME280;19554;42.652;23.364;2023-10-08T07:29:02;94947.13;;;19.65;35.03
33191;BME280;19554;42.652;23.364;2023-10-08T07:31:33;94956.50;;;19.68;34.99
33191;BME280;19554;42.652;23.364;2023-10-08T07:33:59;94936.00;;;19.58;34.94
33191;BME280;19554;42.652;23.364;2023-10-08T07:36:47;94947.13;;;19.89;34.63
33191;BME280;19554;42.652;23.364;2023-10-08T07:39:13;94948.50;;;19.83;34.32
33191;BME280;19554;42.652;23.364;2023-10-08T07:42:03;94944.53;;;19.81;34.48
33191;BME280;19554;42.652;23.364;2023-10-08T07:44:30;94890.16;;;19.74;34.36
33191;BME280;19554;42.652;23.364;2023-10-08T07:46:56;94936.63;;;20.25;34.24
33191;BME280;19554;42.652;23.364;2023-10-08T07:49:23;94925.75;;;20.49;34.17
33191;BME280;19554;42.652;23.364;2023-10-08T07:51:49;94872.47;;;20.29;33.69
33191;BME280;19554;42.652;23.364;2023-10-08T07:54:27;94927.16;;;20.71;33.47
33191;BME280;19554;42.652;23.364;2023-10-08T07:57:00;94925.88;;;20.41;33.49
33191;BME280;19554;42.652;23.364;2023-10-08T07:59:38;94917.66;;;20.12;33.93
33191;BME280;19554;42.652;23.364;2023-10-08T08:02:09;94852.66;;;19.76;33.63
33191;BME280;19554;42.652;23.364;2023-10-08T08:04:42;94915.41;;;20.15;33.57
33191;BME280;19554;42.652;23.364;2023-10-08T08:07:09;94923.03;;;20.49;33.13
33191;BME280;19554;42.652;23.364;2023-10-08T08:09:42;94914.19;;;20.65;32.52
33191;BME280;19554;42.652;23.364;2023-10-08T08:12:13;94916.97;;;20.52;32.72
33191;BME280;19554;42.652;23.364;2023-10-08T08:14:39;94913.47;;;20.80;32.81
33191;BME280;19554;42.652;23.364;2023-10-08T08:17:09;94856.94;;;20.54;32.59
33191;BME280;19554;42.652;23.364;2023-10-08T08:19:43;94896.16;;;20.56;32.81
33191;BME280;19554;42.652;23.364;2023-10-08T08:22:10;94846.94;;;20.30;32.07
33191;BME280;19554;42.652;23.364;2023-10-08T08:24:41;94897.09;;;20.76;32.25
33191;BME280;19554;42.652;23.364;2023-10-08T08:27:10;94878.44;;;20.75;32.66
33191;BME280;19554;42.652;23.364;2023-10-08T08:29:37;94899.25;;;21.27;32.14
33191;BME280;19554;42.652;23.364;2023-10-08T08:32:12;94891.69;;;21.64;30.86
33191;BME280;19554;42.652;23.364;2023-10-08T08:34:41;94894.00;;;21.97;29.85
33191;BME280;19554;42.652;23.364;2023-10-08T08:37:11;94875.22;;;22.24;29.21
33191;BME280;19554;42.652;23.364;2023-10-08T08:39:37;94867.50;;;22.26;28.04
33191;BME280;19554;42.652;23.364;2023-10-08T08:42:03;94872.81;;;22.58;27.97
33191;BME280;19554;42.652;23.364;2023-10-08T08:44:31;94869.94;;;22.89;26.84
33191;BME280;19554;42.652;23.364;2023-10-08T08:46:59;94867.22;;;22.89;25.76
33191;BME280;19554;42.652;23.364;2023-10-08T08:49:30;94866.94;;;22.75;25.42
33191;BME280;19554;42.652;23.364;2023-10-08T08:51:58;94866.09;;;22.71;25.12
33191;BME280;19554;42.652;23.364;2023-10-08T08:54:26;94827.41;;;22.62;25.53
33191;BME280;19554;42.652;23.364;2023-10-08T08:56:53;94865.09;;;22.99;25.20
33191;BME280;19554;42.652;23.364;2023-10-08T08:59:19;94821.84;;;22.74;25.33
33191;BME280;19554;42.652;23.364;2023-10-08T09:01:46;94864.50;;;23.09;25.28
33191;BME280;19554;42.652;23.364;2023-10-08T09:04:12;94856.63;;;23.04;25.43
33191;BME280;19554;42.652;23.364;2023-10-08T09:06:41;94863.34;;;22.90;25.57
33191;BME280;19554;42.652;23.364;2023-10-08T09:09:07;94850.63;;;22.75;25.69
33191;BME280;19554;42.652;23.364;2023-10-08T09:11:49;94854.50;;;22.74;26.09
33191;BME280;19554;42.652;23.364;2023-10-08T09:14:19;94860.66;;;22.71;26.25
33191;BME280;19554;42.652;23.364;2023-10-08T09:16:46;94858.91;;;22.63;26.11
33191;BME280;19554;42.652;23.364;2023-10-08T09:19:12;94809.81;;;22.17;26.43
33191;BME280;19554;42.652;23.364;2023-10-08T09:21:44;94857.78;;;22.44;26.25
33191;BME280;19554;42.652;23.364;2023-10-08T09:24:24;94861.50;;;22.36;26.19
33191;BME280;19554;42.652;23.364;2023-10-08T09:26:52;94859.03;;;22.31;26.41
33191;BME280;19554;42.652;23.364;2023-10-08T09:29:17;94848.47;;;22.45;26.26
33191;BME280;19554;42.652;23.364;2023-10-08T09:31:55;94821.56;;;22.40;26.40
33191;BME280;19554;42.652;23.364;2023-10-08T09:34:21;94832.88;;;22.81;25.65
33191;BME280;19554;42.652;23.364;2023-10-08T09:36:48;94834.16;;;22.87;25.82
33191;BME280;19554;42.652;23.364;2023-10-08T09:39:15;94830.69;;;22.90;25.63
33191;BME280;19554;42.652;23.364;2023-10-08T09:41:49;94839.88;;;23.02;25.59
33191;BME280;19554;42.652;23.364;2023-10-08T09:44:17;94838.25;;;23.20;25.62
33191;BME280;19554;42.652;23.364;2023-10-08T09:46:44;94817.97;;;23.17;25.32
33191;BME280;19554;42.652;23.364;2023-10-08T09:49:14;94824.53;;;23.36;25.17
33191;BME280;19554;42.652;23.364;2023-10-08T09:51:43;94791.00;;;23.09;25.00
33191;BME280;19554;42.652;23.364;2023-10-08T09:54:18;94814.66;;;23.28;25.41
33191;BME280;19554;42.652;23.364;2023-10-08T09:56:46;94788.56;;;23.27;25.59
33191;BME280;19554;42.652;23.364;2023-10-08T09:59:13;94818.03;;;23.21;25.08
33191;BME280;19554;42.652;23.364;2023-10-08T10:01:41;94784.78;;;22.89;25.33
33191;BME280;19554;42.652;23.364;2023-10-08T10:04:11;94798.19;;;22.98;25.36
33191;BME280;19554;42.652;23.364;2023-10-08T10:06:37;94796.44;;;23.09;25.76
33191;BME280;19554;42.652;23.364;2023-10-08T10:09:05;94800.00;;;23.13;25.13
33191;BME280;19554;42.652;23.364;2023-10-08T10:11:47;94720.59;;;22.65;25.51
33191;BME280;19554;42.652;23.364;2023-10-08T10:14:13;94809.41;;;23.15;25.47
33191;BME280;19554;42.652;23.364;2023-10-08T10:16:39;94803.28;;;22.99;25.59
33191;BME280;19554;42.652;23.364;2023-10-08T10:19:16;94801.19;;;22.92;25.85
33191;BME280;19554;42.652;23.364;2023-10-08T10:21:42;94791.00;;;22.89;25.89
33191;BME280;19554;42.652;23.364;2023-10-08T10:24:28;94808.34;;;23.01;26.44
33191;BME280;19554;42.652;23.364;2023-10-08T10:27:12;94794.44;;;23.06;25.86
33191;BME280;19554;42.652;23.364;2023-10-08T10:29:40;94787.44;;;23.05;25.80
33191;BME280;19554;42.652;23.364;2023-10-08T10:32:10;94785.84;;;23.04;26.00
33191;BME280;19554;42.652;23.364;2023-10-08T10:34:38;94771.34;;;23.19;26.16
33191;BME280;19554;42.652;23.364;2023-10-08T10:37:04;94782.94;;;23.16;25.81
33191;BME280;19554;42.652;23.364;2023-10-08T10:39:54;94772.91;;;23.20;26.31
33191;BME280;19554;42.652;23.364;2023-10-08T10:42:21;94759.00;;;23.25;26.46
33191;BME280;19554;42.652;23.364;2023-10-08T10:44:50;94770.66;;;23.26;26.54
33191;BME280;19554;42.652;23.364;2023-10-08T10:47:19;94737.75;;;23.11;26.88
33191;BME280;19554;42.652;23.364;2023-10-08T10:49:46;94751.94;;;23.24;26.83
33191;BME280;19554;42.652;23.364;2023-10-08T10:52:15;94750.19;;;23.35;27.29
33191;BME280;19554;42.652;23.364;2023-10-08T10:55:01;94750.41;;;23.50;26.97
33191;BME280;19554;42.652;23.364;2023-10-08T10:57:47;94750.81;;;23.52;26.96
33191;BME280;19554;42.652;23.364;2023-10-08T11:00:28;94729.66;;;23.41;27.17
33191;BME280;19554;42.652;23.364;2023-10-08T11:02:57;94699.13;;;23.29;27.11
33191;BME280;19554;42.652;23.364;2023-10-08T11:05:37;94737.47;;;23.43;27.30
33191;BME280;19554;42.652;23.364;2023-10-08T11:08:05;94742.13;;;23.42;27.53
33191;BME280;19554;42.652;23.364;2023-10-08T11:10:38;94746.84;;;23.46;27.10
33191;BME280;19554;42.652;23.364;2023-10-08T11:13:05;94741.31;;;23.38;27.33
33191;BME280;19554;42.652;23.364;2023-10-08T11:15:40;94739.41;;;23.42;27.23
33191;BME280;19554;42.652;23.364;2023-10-08T11:18:13;94722.34;;;23.46;27.46
33191;BME280;19554;42.652;23.364;2023-10-08T11:20:40;94731.44;;;23.57;27.16
33191;BME280;19554;42.652;23.364;2023-10-08T11:23:10;94712.63;;;23.48;27.27
33191;BME280;19554;42.652;23.364;2023-10-08T11:25:58;94720.59;;;23.60;27.48
33191;BME280;19554;42.652;23.364;2023-10-08T11:28:30;94727.47;;;23.77;27.04
33191;BME280;19554;42.652;23.364;2023-10-08T11:30:59;94707.97;;;23.75;27.29
33191;BME280;19554;42.652;23.364;2023-10-08T11:33:37;94719.47;;;23.92;27.47
33191;BME280;19554;42.652;23.364;2023-10-08T11:36:05;94720.00;;;24.01;27.24
33191;BME280;19554;42.652;23.364;2023-10-08T11:38:41;94670.97;;;23.74;27.26
33191;BME280;19554;42.652;23.364;2023-10-08T11:41:15;94714.94;;;24.03;27.60
33191;BME280;19554;42.652;23.364;2023-10-08T11:43:50;94666.25;;;23.71;27.55
33191;BME280;19554;42.652;23.364;2023-10-08T11:46:29;94703.13;;;23.92;27.60
33191;BME280;19554;42.652;23.364;2023-10-08T11:49:06;94713.41;;;23.75;28.08
33191;BME280;19554;42.652;23.364;2023-10-08T11:51:34;94719.84;;;23.63;28.21
33191;BME280;19554;42.652;23.364;2023-10-08T11:54:00;94718.16;;;23.55;28.36
33191;BME280;19554;42.652;23.364;2023-10-08T11:56:29;94718.88;;;23.49;28.65
33191;BME280;19554;42.652;23.364;2023-10-08T11:58:55;94712.16;;;23.42;28.76
33191;BME280;19554;42.652;23.364;2023-10-08T12:01:25;94705.81;;;23.08;29.00
33191;BME280;19554;42.652;23.364;2023-10-08T12:03:52;94711.59;;;23.07;29.16
33191;BME280;19554;42.652;23.364;2023-10-08T12:06:18;94629.97;;;22.61;29.46
33191;BME280;19554;42.652;23.364;2023-10-08T12:08:47;94695.28;;;23.07;29.33
33191;BME280;19554;42.652;23.364;2023-10-08T12:11:19;94716.66;;;23.05;29.52
33191;BME280;19554;42.652;23.364;2023-10-08T12:13:44;94679.59;;;23.00;29.54
33191;BME280;19554;42.652;23.364;2023-10-08T12:16:16;94711.97;;;23.28;29.25
33191;BME280;19554;42.652;23.364;2023-10-08T12:18:48;94695.50;;;23.48;28.88
33191;BME280;19554;42.652;23.364;2023-10-08T12:21:18;94698.00;;;23.60;29.12
33191;BME280;19554;42.652;23.364;2023-10-08T12:23:43;94690.19;;;23.58;28.90
33191;BME280;19554;42.652;23.364;2023-10-08T12:26:10;94699.78;;;23.75;28.51
33191;BME280;19554;42.652;23.364;2023-10-08T12:28:44;94680.41;;;23.80;28.29
33191;BME280;19554;42.652;23.364;2023-10-08T12:31:11;94702.38;;;23.95;28.27
33191;BME280;19554;42.652;23.364;2023-10-08T12:33:37;94712.78;;;23.85;28.73
33191;BME280;19554;42.652;23.364;2023-10-08T12:36:03;94706.72;;;23.69;28.75
33191;BME280;19554;42.652;23.364;2023-10-08T12:38:36;94692.78;;;23.74;28.76
33191;BME280;19554;42.652;23.364;2023-10-08T12:41:01;94672.09;;;23.43;28.86
33191;BME280;19554;42.652;23.364;2023-10-08T12:43:36;94696.41;;;23.59;29.15
33191;BME280;19554;42.652;23.364;2023-10-08T12:46:04;94691.31;;;23.27;29.63
33191;BME280;19554;42.652;23.364;2023-10-08T12:48:29;94688.28;;;23.32;29.55
33191;BME280;19554;42.652;23.364;2023-10-08T12:50:55;94693.09;;;23.42;29.58
33191;BME280;19554;42.652;23.364;2023-10-08T12:53:26;94698.56;;;23.42;29.44
33191;BME280;19554;42.652;23.364;2023-10-08T12:55:55;94704.84;;;23.47;29.51
33191;BME280;19554;42.652;23.364;2023-10-08T12:58:23;94693.50;;;23.45;29.44
33191;BME280;19554;42.652;23.364;2023-10-08T13:00:55;94660.41;;;23.16;29.59
33191;BME280;19554;42.652;23.364;2023-10-08T13:03:26;94687.44;;;23.28;29.83
33191;BME280;19554;42.652;23.364;2023-10-08T13:05:56;94685.03;;;23.23;29.98
33191;BME280;19554;42.652;23.364;2023-10-08T13:08:32;94705.13;;;23.15;30.36
33191;BME280;19554;42.652;23.364;2023-10-08T13:11:01;94688.81;;;23.15;29.88
33191;BME280;19554;42.652;23.364;2023-10-08T13:13:27;94700.31;;;23.31;30.01
33191;BME280;19554;42.652;23.364;2023-10-08T13:15:53;94685.22;;;23.37;29.58